createdAt,value
2023-04-24T00:01:54.031Z,45.06
2023-04-24T00:04:22.324Z,45.70
2023-04-24T00:06:55.046Z,45.21
2023-04-24T00:09:23.278Z,45.04
2023-04-24T00:11:51.330Z,44.89
2023-04-24T00:14:20.832Z,44.84
2023-04-24T00:16:48.859Z,44.83
2023-04-24T00:19:17.542Z,44.93
2023-04-24T00:21:45.810Z,44.81
2023-04-24T00:24:14.005Z,45.02
2023-04-24T00:26:42.024Z,44.73
2023-04-24T00:29:10.144Z,44.46
2023-04-24T00:31:39.743Z,44.04
2023-04-24T00:34:08.834Z,45.43
2023-04-24T00:36:36.852Z,44.42
2023-04-24T00:39:05.128Z,43.96
2023-04-24T00:41:33.164Z,48.26
2023-04-24T00:44:01.267Z,45.79
2023-04-24T00:46:29.495Z,45.07
2023-04-24T00:48:59.291Z,45.14
2023-04-24T00:51:28.514Z,44.97
2023-04-24T00:53:56.988Z,45.09
2023-04-24T00:56:25.521Z,45.18
2023-04-24T00:58:53.787Z,45.06
2023-04-24T01:01:23.059Z,45.00
2023-04-24T01:03:53.810Z,45.66
2023-04-24T01:06:24.500Z,45.53
2023-04-24T01:08:52.686Z,45.48
2023-04-24T01:11:20.904Z,45.71
2023-04-24T01:13:49.552Z,45.13
2023-04-24T01:16:18.773Z,44.77
2023-04-24T01:18:47.056Z,45.08
2023-04-24T01:21:17.542Z,45.03
2023-04-24T01:23:47.847Z,44.96
2023-04-24T01:26:21.071Z,45.99
2023-04-24T01:28:50.177Z,45.95
2023-04-24T01:31:18.590Z,46.83
2023-04-24T01:33:46.924Z,47.59
2023-04-24T01:36:16.152Z,48.36
2023-04-24T01:38:44.288Z,48.57
2023-04-24T01:41:13.658Z,47.96
2023-04-24T01:43:41.830Z,48.12
2023-04-24T01:46:10.208Z,48.35
2023-04-24T01:48:38.379Z,47.75
2023-04-24T01:51:06.439Z,48.41
2023-04-24T01:53:34.766Z,49.08
2023-04-24T01:56:05.098Z,49.74
2023-04-24T01:58:34.692Z,50.39
2023-04-24T02:01:03.797Z,50.09
2023-04-24T02:03:32.120Z,50.20
2023-04-24T02:06:00.695Z,50.29
2023-04-24T02:08:28.794Z,50.35
2023-04-24T02:10:56.779Z,49.66
2023-04-24T02:13:24.877Z,49.40
2023-04-24T02:15:54.193Z,49.04
2023-04-24T02:18:23.782Z,49.42
2023-04-24T02:20:52.545Z,49.62
2023-04-24T02:23:21.944Z,49.17
2023-04-24T02:25:49.964Z,49.02
2023-04-24T02:28:19.156Z,49.14
2023-04-24T02:30:47.458Z,49.49
2023-04-24T02:33:16.943Z,49.42
2023-04-24T02:35:45.046Z,49.41
2023-04-24T02:38:13.087Z,49.49
2023-04-24T02:40:41.072Z,49.33
2023-04-24T02:43:09.499Z,50.10
2023-04-24T02:45:39.130Z,50.44
2023-04-24T02:48:07.284Z,50.96
2023-04-24T02:50:36.683Z,51.45
2023-04-24T02:53:04.819Z,51.69
2023-04-24T02:55:33.020Z,51.62
2023-04-24T02:58:02.753Z,51.83
2023-04-24T03:00:31.010Z,51.15
2023-04-24T03:02:59.308Z,50.77
2023-04-24T03:05:28.434Z,50.79
2023-04-24T03:07:57.855Z,50.21
2023-04-24T03:10:25.911Z,50.01
2023-04-24T03:12:54.029Z,49.96
2023-04-24T03:15:22.076Z,51.13
2023-04-24T03:17:50.130Z,51.19
2023-04-24T03:20:18.310Z,50.65
2023-04-24T03:22:46.490Z,50.83
2023-04-24T03:25:16.245Z,50.67
2023-04-24T03:27:44.335Z,50.46
2023-04-24T03:30:27.858Z,50.68
2023-04-24T03:33:00.337Z,50.96
2023-04-24T03:35:31.670Z,51.18
2023-04-24T03:38:05.362Z,50.96
2023-04-24T03:40:59.720Z,51.10
2023-04-24T03:43:46.442Z,51.34
2023-04-24T03:46:16.248Z,50.99
2023-04-24T03:48:49.876Z,51.13
2023-04-24T03:51:20.300Z,51.17
2023-04-24T03:53:51.936Z,51.29
2023-04-24T03:56:24.079Z,51.05
2023-04-24T03:58:52.191Z,51.01
2023-04-24T04:01:21.843Z,51.35
2023-04-24T04:04:02.922Z,51.30
2023-04-24T04:06:32.861Z,51.51
2023-04-24T04:09:02.381Z,51.68
2023-04-24T04:11:33.494Z,51.60
2023-04-24T04:14:01.575Z,51.47
2023-04-24T04:16:30.176Z,51.55
2023-04-24T04:19:04.139Z,51.66
2023-04-24T04:21:33.174Z,51.64
2023-04-24T04:24:12.496Z,51.58
2023-04-24T04:26:47.432Z,51.66
2023-04-24T04:29:23.756Z,51.83
2023-04-24T04:31:53.580Z,51.75
2023-04-24T04:34:23.669Z,51.47
2023-04-24T04:36:53.705Z,51.66
2023-04-24T04:39:36.883Z,51.83
2023-04-24T04:42:09.888Z,52.19
2023-04-24T04:44:42.064Z,51.66
2023-04-24T04:47:14.487Z,51.20
2023-04-24T04:49:44.388Z,51.20
2023-04-24T04:52:26.411Z,51.17
2023-04-24T04:55:02.387Z,50.55
2023-04-24T04:57:52.862Z,50.51
2023-04-24T05:00:22.440Z,50.71
2023-04-24T05:02:53.906Z,50.92
2023-04-24T05:05:22.445Z,50.92
2023-04-24T05:07:51.075Z,50.67
2023-04-24T05:10:19.935Z,50.45
2023-04-24T05:12:48.434Z,50.68
2023-04-24T05:15:17.962Z,51.18
2023-04-24T05:17:46.722Z,50.92
2023-04-24T05:20:15.967Z,50.82
2023-04-24T05:22:44.815Z,50.72
2023-04-24T05:25:13.489Z,50.73
2023-04-24T05:27:47.551Z,50.56
2023-04-24T05:30:18.955Z,50.40
2023-04-24T05:32:47.398Z,50.19
2023-04-24T05:35:15.599Z,49.56
2023-04-24T05:37:43.788Z,49.51
2023-04-24T05:40:13.646Z,49.33
2023-04-24T05:42:41.721Z,49.12
2023-04-24T05:45:12.735Z,48.92
2023-04-24T05:47:42.461Z,49.52
2023-04-24T05:50:11.230Z,49.54
2023-04-24T05:52:39.454Z,49.55
2023-04-24T05:55:19.565Z,49.70
2023-04-24T05:57:48.939Z,50.11
2023-04-24T06:00:19.002Z,50.15
2023-04-24T06:02:55.483Z,50.05
2023-04-24T06:05:24.419Z,50.50
2023-04-24T06:07:54.970Z,49.05
2023-04-24T06:10:25.748Z,49.08
2023-04-24T06:12:57.261Z,49.79
2023-04-24T06:15:26.343Z,50.72
2023-04-24T06:18:11.204Z,49.63
2023-04-24T06:20:40.656Z,49.11
2023-04-24T06:23:10.854Z,48.80
2023-04-24T06:25:39.744Z,48.68
2023-04-24T06:28:07.970Z,48.39
2023-04-24T06:30:37.088Z,47.99
2023-04-24T06:33:18.800Z,47.38
2023-04-24T06:35:49.630Z,46.92
2023-04-24T06:38:18.146Z,46.77
2023-04-24T06:40:46.351Z,46.71
2023-04-24T06:43:16.006Z,46.81
2023-04-24T06:45:44.948Z,46.38
2023-04-24T06:48:13.207Z,45.87
2023-04-24T06:50:41.284Z,45.25
2023-04-24T06:53:12.171Z,45.56
2023-04-24T06:55:40.568Z,45.75
2023-04-24T06:58:09.062Z,45.31
2023-04-24T07:00:37.223Z,44.54
2023-04-24T07:03:06.506Z,44.36
2023-04-24T07:05:36.445Z,44.68
2023-04-24T07:08:05.410Z,43.36
2023-04-24T07:10:36.746Z,42.72
2023-04-24T07:13:04.863Z,42.67
2023-04-24T07:15:33.477Z,41.91
2023-04-24T07:18:04.028Z,42.06
2023-04-24T07:20:34.375Z,41.54
2023-04-24T07:23:02.439Z,41.43
2023-04-24T07:25:30.601Z,41.43
2023-04-24T07:28:00.108Z,41.25
2023-04-24T07:30:29.916Z,40.78
2023-04-24T07:32:57.941Z,40.97
2023-04-24T07:35:26.624Z,40.54
2023-04-24T07:37:55.235Z,40.18
2023-04-24T07:40:23.854Z,39.88
2023-04-24T07:42:51.900Z,39.62
2023-04-24T07:45:21.543Z,39.70
2023-04-24T07:47:49.681Z,39.48
2023-04-24T07:50:17.801Z,39.30
2023-04-24T07:52:45.942Z,38.74
2023-04-24T07:55:13.959Z,37.92
2023-04-24T07:57:41.955Z,38.09
2023-04-24T08:00:11.207Z,37.37
2023-04-24T08:02:43.941Z,37.70
2023-04-24T08:05:12.268Z,37.94
2023-04-24T08:07:40.650Z,38.70
2023-04-24T08:10:09.996Z,37.47
2023-04-24T08:12:38.335Z,37.84
2023-04-24T08:15:07.718Z,37.84
2023-04-24T08:17:36.480Z,37.79
2023-04-24T08:20:06.902Z,37.38
2023-04-24T08:22:34.992Z,36.86
2023-04-24T08:25:03.108Z,36.88
2023-04-24T08:27:31.208Z,36.49
2023-04-24T08:29:59.446Z,35.94
2023-04-24T08:32:28.971Z,36.39
2023-04-24T08:34:57.474Z,35.89
2023-04-24T08:37:28.275Z,35.90
2023-04-24T08:39:56.738Z,35.09
2023-04-24T08:42:25.369Z,34.54
2023-04-24T08:44:53.531Z,35.09
2023-04-24T08:47:22.781Z,34.46
2023-04-24T08:49:53.035Z,34.55
2023-04-24T08:52:21.286Z,34.39
2023-04-24T08:54:50.722Z,33.78
2023-04-24T08:57:21.015Z,33.47
2023-04-24T08:59:49.469Z,33.92
2023-04-24T09:02:18.889Z,33.88
2023-04-24T09:04:49.298Z,33.28
2023-04-24T09:07:19.514Z,33.04
2023-04-24T09:09:47.733Z,32.49
2023-04-24T09:12:17.294Z,32.64
2023-04-24T09:14:46.476Z,32.25
2023-04-24T09:17:14.726Z,31.75
2023-04-24T09:19:43.375Z,31.87
2023-04-24T09:22:12.393Z,31.94
2023-04-24T09:24:40.982Z,31.77
2023-04-24T09:27:11.297Z,31.08
2023-04-24T09:29:40.982Z,31.56
2023-04-24T09:32:22.738Z,31.21
2023-04-24T09:34:52.058Z,31.08
2023-04-24T09:37:31.026Z,31.53
2023-04-24T09:40:14.000Z,31.97
2023-04-24T09:42:42.588Z,31.43
2023-04-24T09:45:16.068Z,30.99
2023-04-24T09:47:45.060Z,31.04
2023-04-24T09:50:16.925Z,31.26
2023-04-24T09:52:47.283Z,32.33
2023-04-24T09:55:21.320Z,32.88
2023-04-24T09:57:53.613Z,31.87
2023-04-24T10:00:26.328Z,32.70
2023-04-24T10:02:59.017Z,32.39
2023-04-24T10:05:29.926Z,32.26
2023-04-24T10:08:03.953Z,31.98
2023-04-24T10:10:33.084Z,32.25
2023-04-24T10:13:02.029Z,31.88
2023-04-24T10:15:32.184Z,30.88
2023-04-24T10:18:01.141Z,30.92
2023-04-24T10:20:31.684Z,30.93
2023-04-24T10:23:01.110Z,31.79
2023-04-24T10:25:31.341Z,31.37
2023-04-24T10:28:01.093Z,31.03
2023-04-24T10:30:31.957Z,30.61
2023-04-24T10:33:02.036Z,30.63
2023-04-24T10:35:33.309Z,30.73
2023-04-24T10:38:06.005Z,30.92
2023-04-24T10:40:36.176Z,31.08
2023-04-24T10:43:07.197Z,30.39
2023-04-24T10:45:36.612Z,30.60
2023-04-24T10:48:07.253Z,30.49
2023-04-24T10:50:45.813Z,29.42
2023-04-24T10:53:19.304Z,29.55
2023-04-24T10:55:49.233Z,29.40
2023-04-24T10:58:18.806Z,29.53
2023-04-24T11:00:58.547Z,30.01
2023-04-24T11:03:28.894Z,30.19
2023-04-24T11:06:03.086Z,30.34
2023-04-24T11:08:33.270Z,30.31
2023-04-24T11:11:10.421Z,30.00
2023-04-24T11:14:04.217Z,29.91
2023-04-24T11:16:35.656Z,30.88
2023-04-24T11:19:05.928Z,29.65
2023-04-24T11:21:34.924Z,29.60
2023-04-24T11:24:25.892Z,29.48
2023-04-24T11:26:55.537Z,29.15
2023-04-24T11:29:24.542Z,29.38
2023-04-24T11:31:55.266Z,29.09
2023-04-24T11:34:24.419Z,29.78
2023-04-24T11:36:52.689Z,29.34
2023-04-24T11:39:20.838Z,29.01
2023-04-24T11:41:49.377Z,29.03
2023-04-24T11:44:22.645Z,29.71
2023-04-24T11:46:50.690Z,28.35
2023-04-24T11:49:20.058Z,29.16
2023-04-24T11:51:53.486Z,28.90
2023-04-24T11:54:22.356Z,28.93
2023-04-24T11:56:51.556Z,29.15
2023-04-24T11:59:19.757Z,29.55
2023-04-24T12:01:48.349Z,29.05
2023-04-24T12:04:17.282Z,29.48
2023-04-24T12:07:04.726Z,27.95
2023-04-24T12:09:43.768Z,27.75
2023-04-24T12:12:13.657Z,27.72
2023-04-24T12:14:50.755Z,27.88
2023-04-24T12:17:19.117Z,27.53
2023-04-24T12:19:49.057Z,27.89
2023-04-24T12:22:18.799Z,28.00
2023-04-24T12:25:03.484Z,28.56
2023-04-24T12:27:34.088Z,28.35
2023-04-24T12:30:04.028Z,28.12
2023-04-24T12:32:32.124Z,29.20
2023-04-24T12:35:00.612Z,29.34
2023-04-24T12:37:37.495Z,29.84
2023-04-24T12:40:08.172Z,30.13
2023-04-24T12:42:37.354Z,30.18
2023-04-24T12:45:07.085Z,31.04
2023-04-24T12:47:36.224Z,30.25
2023-04-24T12:50:04.746Z,29.52
2023-04-24T12:52:34.230Z,30.49
2023-04-24T12:55:03.010Z,30.36
2023-04-24T12:57:32.244Z,30.60
2023-04-24T13:00:00.941Z,30.29
2023-04-24T13:02:32.268Z,35.40
2023-04-24T13:05:01.102Z,37.46
2023-04-24T13:07:29.825Z,38.63
2023-04-24T13:09:59.654Z,43.82
2023-04-24T13:12:28.056Z,43.97
2023-04-24T13:14:56.858Z,46.20
2023-04-24T13:17:25.020Z,47.09
2023-04-24T13:19:57.353Z,48.14
2023-04-24T13:22:26.041Z,48.06
2023-04-24T13:24:54.162Z,48.90
2023-04-24T13:27:23.798Z,49.93
2023-04-24T13:29:52.267Z,50.67
2023-04-24T13:32:20.642Z,50.73
2023-04-24T13:34:49.305Z,50.18
2023-04-24T13:37:17.343Z,51.71
2023-04-24T13:39:45.515Z,51.55
2023-04-24T13:42:13.811Z,52.06
2023-04-24T13:44:43.673Z,51.84
2023-04-24T13:47:11.795Z,51.66
2023-04-24T13:49:39.926Z,50.39
2023-04-24T13:52:08.399Z,49.56
2023-04-24T13:54:36.442Z,48.60
2023-04-24T13:57:05.442Z,47.44
2023-04-24T13:59:33.560Z,47.29
2023-04-24T14:02:02.977Z,46.53
2023-04-24T14:04:31.416Z,46.57
2023-04-24T14:06:59.450Z,46.32
2023-04-24T14:09:27.506Z,46.00
2023-04-24T14:11:55.509Z,45.79
2023-04-24T14:14:23.706Z,46.11
2023-04-24T14:16:52.025Z,45.90
2023-04-24T14:19:21.457Z,46.40
2023-04-24T14:21:49.580Z,45.70
2023-04-24T14:24:17.821Z,45.80
2023-04-24T14:26:46.104Z,45.80
2023-04-24T14:29:15.340Z,46.23
2023-04-24T14:31:44.450Z,46.66
2023-04-24T14:34:13.785Z,46.53
2023-04-24T14:36:44.300Z,47.16
2023-04-24T14:39:12.870Z,46.67
2023-04-24T14:41:41.395Z,46.13
2023-04-24T14:44:11.614Z,45.97
2023-04-24T14:46:39.819Z,46.51
2023-04-24T14:49:10.628Z,46.53
2023-04-24T14:51:38.802Z,46.31
2023-04-24T14:54:08.402Z,46.94
2023-04-24T14:56:36.723Z,47.11
2023-04-24T14:59:05.112Z,48.19
2023-04-24T15:01:33.256Z,48.52
2023-04-24T15:04:01.475Z,48.58
2023-04-24T15:06:31.947Z,48.92
2023-04-24T15:09:00.105Z,49.36
2023-04-24T15:11:29.695Z,48.92
2023-04-24T15:13:58.018Z,48.39
2023-04-24T15:16:26.287Z,48.85
2023-04-24T15:18:54.573Z,48.14
2023-04-24T15:21:22.682Z,48.42
2023-04-24T15:23:50.968Z,49.20
2023-04-24T15:26:19.801Z,48.80
2023-04-24T15:28:49.575Z,49.30
2023-04-24T15:31:17.764Z,49.60
2023-04-24T15:33:46.186Z,49.94
2023-04-24T15:36:14.740Z,49.35
2023-04-24T15:38:42.861Z,50.18
2023-04-24T15:41:10.956Z,50.15
2023-04-24T15:43:39.879Z,49.49
2023-04-24T15:46:09.590Z,49.49
2023-04-24T15:48:39.928Z,50.48
2023-04-24T15:51:08.105Z,50.10
2023-04-24T15:53:36.242Z,49.75
2023-04-24T15:56:04.716Z,50.95
2023-04-24T15:58:32.893Z,51.08
2023-04-24T16:01:01.658Z,50.89
2023-04-24T16:03:31.259Z,51.36
2023-04-24T16:05:59.487Z,51.58
2023-04-24T16:08:27.505Z,51.57
2023-04-24T16:10:55.780Z,52.35
2023-04-24T16:13:23.994Z,53.31
2023-04-24T16:15:53.007Z,54.06
2023-04-24T16:18:21.108Z,53.96
2023-04-24T16:20:52.175Z,54.25
2023-04-24T16:23:20.336Z,53.44
2023-04-24T16:25:48.527Z,53.45
2023-04-24T16:28:17.127Z,53.53
2023-04-24T16:30:45.268Z,53.42
2023-04-24T16:33:13.472Z,54.25
2023-04-24T16:35:41.454Z,54.58
2023-04-24T16:38:11.365Z,54.11
2023-04-24T16:40:42.479Z,54.74
2023-04-24T16:43:10.793Z,54.89
2023-04-24T16:45:39.129Z,55.33
2023-04-24T16:48:07.842Z,55.04
2023-04-24T16:50:36.014Z,54.61
2023-04-24T16:53:04.245Z,54.51
2023-04-24T16:55:33.640Z,53.69
2023-04-24T16:58:02.350Z,53.75
2023-04-24T17:00:30.470Z,53.98
2023-04-24T17:02:58.667Z,54.50
2023-04-24T17:05:26.871Z,54.34
2023-04-24T17:07:55.029Z,55.14
2023-04-24T17:10:23.141Z,54.83
2023-04-24T17:12:52.735Z,55.03
2023-04-24T17:15:20.803Z,55.14
2023-04-24T17:17:48.973Z,55.43
2023-04-24T17:20:22.959Z,55.22
2023-04-24T17:22:52.212Z,55.70
2023-04-24T17:25:21.510Z,56.07
2023-04-24T17:27:49.634Z,55.15
2023-04-24T17:30:19.131Z,55.14
2023-04-24T17:32:47.438Z,55.30
2023-04-24T17:35:15.575Z,55.47
2023-04-24T17:37:43.612Z,55.04
2023-04-24T17:40:13.074Z,55.57
2023-04-24T17:42:42.508Z,55.76
2023-04-24T17:45:12.013Z,55.87
2023-04-24T17:47:42.209Z,55.38
2023-04-24T17:50:10.748Z,55.20
2023-04-24T17:52:38.753Z,55.25
2023-04-24T17:55:07.754Z,55.85
2023-04-24T17:57:35.920Z,55.44
2023-04-24T18:00:04.905Z,55.42
2023-04-24T18:02:34.038Z,55.56
2023-04-24T18:05:03.691Z,55.15
2023-04-24T18:07:31.699Z,56.63
2023-04-24T18:09:59.760Z,56.25
2023-04-24T18:12:27.956Z,55.80
2023-04-24T18:15:06.758Z,55.60
2023-04-24T18:17:41.827Z,56.03
2023-04-24T18:20:12.479Z,55.92
2023-04-24T18:22:41.097Z,55.80
2023-04-24T18:25:09.896Z,55.53
2023-04-24T18:27:38.661Z,55.79
2023-04-24T18:30:08.585Z,56.80
2023-04-24T18:32:37.134Z,56.91
2023-04-24T18:35:05.783Z,58.91
2023-04-24T18:37:35.268Z,60.83
2023-04-24T18:40:03.846Z,62.26
2023-04-24T18:42:32.005Z,64.64
2023-04-24T18:45:01.828Z,66.21
2023-04-24T18:47:30.086Z,67.19
2023-04-24T18:49:58.379Z,67.25
2023-04-24T18:52:26.732Z,67.25
2023-04-24T18:54:56.224Z,67.49
2023-04-24T18:57:24.280Z,68.76
2023-04-24T18:59:52.294Z,70.43
2023-04-24T19:02:20.869Z,71.41
2023-04-24T19:04:49.022Z,70.44
2023-04-24T19:07:19.367Z,70.48
2023-04-24T19:09:47.491Z,70.28
2023-04-24T19:12:16.972Z,71.18
2023-04-24T19:14:45.103Z,73.05
2023-04-24T19:17:13.178Z,73.00
2023-04-24T19:19:41.332Z,73.27
2023-04-24T19:22:09.391Z,72.36
2023-04-24T19:24:37.490Z,72.00
2023-04-24T19:27:05.504Z,73.08
2023-04-24T19:29:34.916Z,74.52
2023-04-24T19:32:03.083Z,73.22
2023-04-24T19:34:32.148Z,73.95
2023-04-24T19:37:00.615Z,73.71
2023-04-24T19:39:30.604Z,72.74
2023-04-24T19:42:00.345Z,71.31
2023-04-24T19:44:28.491Z,70.13
2023-04-24T19:46:58.121Z,70.62
2023-04-24T19:49:26.287Z,70.17
2023-04-24T19:51:54.290Z,70.61
2023-04-24T19:54:22.771Z,71.87
2023-04-24T19:56:50.724Z,70.43
2023-04-24T19:59:19.168Z,69.49
2023-04-24T20:01:47.242Z,69.87
2023-04-24T20:04:16.728Z,71.64
2023-04-24T20:06:44.849Z,73.57
2023-04-24T20:09:12.887Z,72.21
2023-04-24T20:11:41.134Z,71.15
2023-04-24T20:14:09.212Z,73.52
2023-04-24T20:16:38.594Z,73.44
2023-04-24T20:19:06.616Z,73.03
2023-04-24T20:21:36.134Z,72.90
2023-04-24T20:24:04.528Z,72.48
2023-04-24T20:26:32.704Z,73.12
2023-04-24T20:29:00.709Z,73.24
2023-04-24T20:31:28.861Z,73.52
2023-04-24T20:33:56.978Z,72.87
2023-04-24T20:36:25.693Z,72.53
2023-04-24T20:38:55.132Z,71.44
2023-04-24T20:41:24.761Z,73.06
2023-04-24T20:43:52.942Z,72.20
2023-04-24T20:46:21.158Z,71.81
2023-04-24T20:48:50.184Z,72.58
2023-04-24T20:51:19.651Z,71.21
2023-04-24T20:53:49.352Z,70.54
2023-04-24T20:56:19.330Z,71.23
2023-04-24T20:58:47.890Z,71.45
2023-04-24T21:01:16.493Z,71.94
2023-04-24T21:03:44.886Z,72.98
2023-04-24T21:06:12.961Z,72.69
2023-04-24T21:08:41.081Z,70.97
2023-04-24T21:11:09.048Z,71.53
2023-04-24T21:13:38.557Z,71.93
2023-04-24T21:16:07.029Z,72.05
2023-04-24T21:18:35.587Z,70.78
2023-04-24T21:21:03.731Z,72.07
2023-04-24T21:23:31.763Z,72.13
2023-04-24T21:26:00.138Z,73.73
2023-04-24T21:28:28.370Z,73.23
2023-04-24T21:30:57.741Z,73.59
2023-04-24T21:33:25.842Z,75.20
2023-04-24T21:35:53.862Z,76.16
2023-04-24T21:38:24.585Z,76.89
2023-04-24T21:40:53.340Z,76.24
2023-04-24T21:43:28.093Z,74.77
2023-04-24T21:46:03.353Z,75.91
2023-04-24T21:48:31.455Z,77.66
2023-04-24T21:50:59.414Z,77.51
2023-04-24T21:53:29.591Z,75.27
2023-04-24T21:55:57.774Z,74.74
2023-04-24T21:58:25.913Z,72.94
2023-04-24T22:00:54.068Z,71.21
2023-04-24T22:03:26.793Z,70.82
2023-04-24T22:05:56.657Z,72.02
2023-04-24T22:08:24.753Z,75.11
2023-04-24T22:10:53.207Z,74.66
2023-04-24T22:13:21.430Z,74.88
2023-04-24T22:15:51.367Z,76.38
2023-04-24T22:18:19.463Z,75.61
2023-04-24T22:20:48.791Z,75.46
2023-04-24T22:23:16.981Z,75.73
2023-04-24T22:25:45.044Z,78.04
2023-04-24T22:28:13.174Z,80.70
2023-04-24T22:30:41.288Z,82.22
2023-04-24T22:33:10.037Z,82.21
2023-04-24T22:35:38.051Z,85.52
2023-04-24T22:38:07.490Z,85.02
2023-04-24T22:40:36.072Z,89.27
2023-04-24T22:43:04.230Z,88.34
2023-04-24T22:45:32.472Z,87.93
2023-04-24T22:48:00.637Z,88.63
2023-04-24T22:50:29.163Z,86.95
2023-04-24T22:52:57.188Z,88.72
2023-04-24T22:55:26.611Z,91.92
2023-04-24T22:57:57.254Z,93.26
2023-04-24T23:00:25.643Z,92.42
2023-04-24T23:02:53.966Z,91.33
2023-04-24T23:05:22.837Z,92.67
2023-04-24T23:07:50.827Z,93.61
2023-04-24T23:10:19.227Z,93.26
2023-04-24T23:12:48.942Z,92.64
2023-04-24T23:15:17.021Z,94.70
2023-04-24T23:17:45.136Z,94.64
2023-04-24T23:20:14.635Z,94.06
2023-04-24T23:22:43.015Z,94.74
2023-04-24T23:25:11.372Z,95.64
2023-04-24T23:27:39.413Z,94.00
2023-04-24T23:30:10.066Z,91.37
2023-04-24T23:32:38.088Z,93.54
2023-04-24T23:35:06.744Z,92.76
2023-04-24T23:37:35.742Z,93.33
2023-04-24T23:40:06.150Z,97.93
2023-04-24T23:42:34.215Z,98.17
2023-04-24T23:45:02.262Z,97.42
2023-04-24T23:47:31.783Z,95.18
2023-04-24T23:49:59.847Z,95.58
2023-04-24T23:52:27.980Z,98.78
2023-04-24T23:54:56.063Z,96.58
2023-04-24T23:57:24.145Z,93.36
2023-04-24T23:59:52.137Z,94.28
